Time;durP1;ratioP1;P1;durP2;ratioP2;P2;SDS_P1;SDS_P2;PMS_P1;PMS_P2;Temp;Humidity;BMP_temperature;BMP_pressure;BME280_temperature;BME280_humidity;BME280_pressure;Samples;Min_cycle;Max_cycle;Signal;HPM_P1;HPM_P2
2023/05/10 00:00:52;;;;;;;25.93;14.17;;;14.60;99.90;;;;;;5076548;28;20438;-70
2023/05/10 00:03:18;;;;;;;27.40;13.90;;;14.60;99.90;;;;;;5076851;28;20426;-70
2023/05/10 00:05:44;;;;;;;30.40;14.33;;;14.60;99.90;;;;;;5069686;28;20410;-70
2023/05/10 00:08:09;;;;;;;29.42;13.82;;;14.60;99.90;;;;;;5087529;28;20402;-70
2023/05/10 00:10:36;;;;;;;27.50;14.63;;;14.50;99.90;;;;;;5069450;28;20414;-70
2023/05/10 00:13:01;;;;;;;28.17;14.10;;;14.50;99.90;;;;;;5068671;28;20458;-70
2023/05/10 00:15:27;;;;;;;30.02;14.73;;;14.60;99.90;;;;;;5077753;28;20411;-71
2023/05/10 00:17:53;;;;;;;28.77;15.00;;;14.50;99.90;;;;;;5043505;28;20421;-71
2023/05/10 00:20:18;;;;;;;33.73;15.57;;;14.50;99.90;;;;;;5087372;28;20895;-71
2023/05/10 00:22:44;;;;;;;31.73;14.35;;;14.50;99.90;;;;;;5087242;28;20417;-71
2023/05/10 00:25:10;;;;;;;30.43;14.70;;;14.50;99.90;;;;;;5068991;28;20414;-70
2023/05/10 00:27:36;;;;;;;29.25;14.35;;;14.50;99.90;;;;;;5087088;28;20769;-71
2023/05/10 00:30:01;;;;;;;24.83;14.43;;;14.50;99.90;;;;;;5086057;28;20414;-70
2023/05/10 00:32:27;;;;;;;30.07;14.80;;;14.50;99.90;;;;;;5081770;28;20435;-71
2023/05/10 00:34:53;;;;;;;28.27;14.60;;;14.50;99.90;;;;;;5081810;28;20406;-70
2023/05/10 00:37:18;;;;;;;17.53;11.70;;;14.50;99.90;;;;;;5088311;28;20443;-71
2023/05/10 00:39:44;;;;;;;18.42;11.40;;;14.40;99.90;;;;;;5086687;28;20485;-70
2023/05/10 00:42:09;;;;;;;15.20;10.63;;;14.40;99.90;;;;;;5086664;28;20479;-71
2023/05/10 00:44:35;;;;;;;14.63;10.50;;;14.30;99.90;;;;;;5088026;28;20433;-71
2023/05/10 00:47:01;;;;;;;15.30;11.70;;;14.20;99.90;;;;;;5088143;28;20473;-70
2023/05/10 00:49:27;;;;;;;18.58;12.40;;;14.20;99.90;;;;;;5070275;28;20511;-71
2023/05/10 00:51:53;;;;;;;17.02;12.45;;;14.10;99.90;;;;;;5082537;28;20407;-70
2023/05/10 00:54:18;;;;;;;18.55;13.40;;;14.10;99.90;;;;;;5051841;28;20548;-71
2023/05/10 00:56:48;;;;;;;18.20;13.07;;;14.00;99.90;;;;;;5087708;28;20764;-71
2023/05/10 00:59:16;;;;;;;18.27;13.48;;;14.00;99.90;;;;;;5069601;28;20405;-71
2023/05/10 01:01:42;;;;;;;17.60;12.65;;;13.90;99.90;;;;;;5087633;28;20406;-71
2023/05/10 01:04:10;;;;;;;18.40;13.38;;;13.90;99.90;;;;;;5086490;28;20421;-71
2023/05/10 01:06:36;;;;;;;17.00;12.65;;;13.80;99.90;;;;;;5086488;28;20402;-71
2023/05/10 01:09:02;;;;;;;19.38;12.60;;;13.80;99.90;;;;;;5068871;28;20784;-70
2023/05/10 01:11:28;;;;;;;17.97;12.33;;;13.80;99.90;;;;;;5068347;28;20406;-70
2023/05/10 01:13:58;;;;;;;20.05;13.82;;;13.70;99.90;;;;;;5069318;28;20816;-70
2023/05/10 01:16:24;;;;;;;20.25;13.77;;;13.70;99.90;;;;;;5080901;28;21127;-71
2023/05/10 01:18:51;;;;;;;20.35;13.30;;;13.70;99.90;;;;;;5097180;28;20883;-70
2023/05/10 01:21:47;;;;;;;21.90;13.83;;;13.70;99.90;;;;;;5072691;28;20414;-71
2023/05/10 01:24:41;;;;;;;19.48;13.20;;;13.70;99.90;;;;;;5039806;28;20437;-72
2023/05/10 01:27:35;;;;;;;22.50;14.02;;;13.70;99.90;;;;;;5090397;28;20425;-71
2023/05/10 01:30:25;;;;;;;20.00;13.73;;;13.70;99.90;;;;;;5079548;28;20418;-72
2023/05/10 01:33:15;;;;;;;24.27;14.00;;;13.70;99.90;;;;;;5063416;28;20482;-72
2023/05/10 01:36:25;;;;;;;24.10;14.27;;;13.70;99.90;;;;;;5072984;28;20418;-72
2023/05/10 01:39:06;;;;;;;19.08;12.80;;;13.70;99.90;;;;;;5073114;28;20422;-72
2023/05/10 01:41:53;;;;;;;19.98;12.45;;;13.70;99.90;;;;;;5091792;28;20430;-72
2023/05/10 01:44:31;;;;;;;18.85;12.48;;;13.60;99.90;;;;;;5091473;28;20881;-72
2023/05/10 01:47:43;;;;;;;19.13;12.57;;;13.60;99.90;;;;;;5091091;28;20460;-72
2023/05/10 01:50:24;;;;;;;19.52;12.05;;;13.60;99.90;;;;;;5052571;28;20489;-72
2023/05/10 01:52:54;;;;;;;15.50;10.65;;;13.60;99.90;;;;;;5091413;28;20504;-72
2023/05/10 01:55:22;;;;;;;15.93;10.27;;;13.60;99.90;;;;;;5072935;28;20411;-72
2023/05/10 01:57:55;;;;;;;15.13;11.02;;;13.60;99.90;;;;;;5105698;28;20817;-71
2023/05/10 02:00:23;;;;;;;17.70;10.82;;;13.50;99.90;;;;;;5091497;28;20394;-72
2023/05/10 02:02:49;;;;;;;16.87;10.93;;;13.50;99.90;;;;;;5072273;28;20428;-72
2023/05/10 02:05:16;;;;;;;17.35;11.38;;;13.50;99.90;;;;;;5090915;28;20515;-72
2023/05/10 02:07:43;;;;;;;17.63;12.02;;;13.50;99.90;;;;;;5091213;28;20409;-72
2023/05/10 02:10:10;;;;;;;16.15;10.80;;;13.60;99.90;;;;;;5072693;28;20414;-72
2023/05/10 02:12:39;;;;;;;13.48;10.02;;;13.60;99.90;;;;;;5090686;28;20790;-72
2023/05/10 02:15:06;;;;;;;15.45;10.48;;;13.50;99.90;;;;;;5090991;28;20398;-72
2023/05/10 02:17:34;;;;;;;17.38;10.85;;;13.40;99.90;;;;;;5071393;28;20417;-72
2023/05/10 02:20:01;;;;;;;15.30;10.45;;;13.40;99.90;;;;;;5055457;28;20418;-72
2023/05/10 02:22:28;;;;;;;15.25;10.32;;;13.40;99.90;;;;;;5090611;28;20412;-72
2023/05/10 02:24:59;;;;;;;13.05;9.52;;;13.30;99.90;;;;;;5072070;28;20542;-71
2023/05/10 02:27:27;;;;;;;14.35;9.98;;;13.30;99.90;;;;;;5072352;28;20927;-72
2023/05/10 02:29:54;;;;;;;12.75;9.30;;;13.30;99.90;;;;;;5071768;28;20408;-72
2023/05/10 02:32:21;;;;;;;12.73;9.25;;;13.30;99.90;;;;;;5071748;28;20987;-72
2023/05/10 02:34:51;;;;;;;14.75;9.70;;;13.30;99.90;;;;;;5090398;28;20410;-72
2023/05/10 02:37:19;;;;;;;13.98;9.85;;;13.20;99.90;;;;;;5090278;28;20556;-72
2023/05/10 02:39:47;;;;;;;13.68;9.75;;;13.20;99.90;;;;;;5072130;28;20414;-72
2023/05/10 02:42:18;;;;;;;15.93;10.30;;;13.20;99.90;;;;;;5090865;28;20501;-72
2023/05/10 02:44:50;;;;;;;15.55;10.45;;;13.20;99.90;;;;;;5089722;28;20437;-71
2023/05/10 02:47:16;;;;;;;14.07;10.13;;;13.20;99.90;;;;;;5072140;28;20402;-72
2023/05/10 02:49:42;;;;;;;16.20;10.03;;;13.20;99.90;;;;;;5072007;28;20491;-72
2023/05/10 02:52:11;;;;;;;14.75;9.95;;;13.10;99.90;;;;;;5088537;28;20441;-72
2023/05/10 02:54:48;;;;;;;15.20;10.27;;;13.20;99.90;;;;;;5089469;28;20406;-72
2023/05/10 02:57:20;;;;;;;14.55;10.48;;;13.10;99.90;;;;;;5105474;28;20412;-72
2023/05/10 02:59:46;;;;;;;15.40;10.48;;;13.10;99.90;;;;;;5104844;28;20447;-72
2023/05/10 03:02:12;;;;;;;14.48;9.98;;;13.10;99.90;;;;;;5089817;28;20918;-72
2023/05/10 03:04:38;;;;;;;16.17;10.95;;;13.10;99.90;;;;;;5071412;28;20430;-72
2023/05/10 03:07:04;;;;;;;15.15;10.73;;;13.10;99.90;;;;;;5071763;28;20424;-72
2023/05/10 03:09:31;;;;;;;15.45;10.60;;;13.10;99.90;;;;;;5054896;28;20410;-72
2023/05/10 03:12:03;;;;;;;15.43;10.63;;;13.10;99.90;;;;;;5072077;28;20838;-73
2023/05/10 03:14:35;;;;;;;15.27;11.00;;;13.10;99.90;;;;;;5089942;28;20508;-72
2023/05/10 03:17:09;;;;;;;17.40;11.23;;;13.10;99.90;;;;;;5089585;28;20418;-72
2023/05/10 03:19:50;;;;;;;16.17;11.10;;;13.10;99.90;;;;;;5079624;28;20492;-72
2023/05/10 03:22:23;;;;;;;18.25;11.20;;;13.10;99.90;;;;;;5070960;28;20928;-72
2023/05/10 03:24:49;;;;;;;15.82;10.93;;;13.10;99.90;;;;;;5062852;28;20821;-72
2023/05/10 03:27:16;;;;;;;18.50;11.00;;;13.10;99.90;;;;;;5071381;28;21008;-72
2023/05/10 03:29:43;;;;;;;19.83;11.43;;;13.10;99.90;;;;;;5071173;28;20406;-72
2023/05/10 03:32:08;;;;;;;17.95;11.10;;;13.10;99.90;;;;;;5088996;28;20455;-72
2023/05/10 03:34:40;;;;;;;18.73;11.63;;;13.10;99.90;;;;;;5089537;28;20414;-73
2023/05/10 03:37:06;;;;;;;18.98;11.93;;;13.10;99.90;;;;;;5089463;28;20452;-73
2023/05/10 03:39:32;;;;;;;17.03;11.23;;;13.20;99.90;;;;;;5071193;28;20414;-73
2023/05/10 03:41:57;;;;;;;17.53;11.37;;;13.10;99.90;;;;;;5070809;28;20485;-72
2023/05/10 03:44:23;;;;;;;16.70;11.13;;;13.10;99.90;;;;;;5070705;28;20434;-72
2023/05/10 03:46:48;;;;;;;16.50;11.30;;;13.10;99.90;;;;;;5088256;28;21150;-72
2023/05/10 03:49:14;;;;;;;16.23;11.32;;;13.10;99.90;;;;;;5088425;28;20410;-73
2023/05/10 03:51:40;;;;;;;16.00;11.50;;;13.10;99.90;;;;;;5087472;28;20459;-73
2023/05/10 03:54:05;;;;;;;16.17;11.27;;;13.10;99.90;;;;;;5070638;28;20844;-73
2023/05/10 03:56:31;;;;;;;18.90;11.67;;;13.10;99.90;;;;;;5070162;28;20402;-73
2023/05/10 03:58:56;;;;;;;18.70;11.63;;;13.10;99.90;;;;;;5087498;28;20406;-73
2023/05/10 04:01:22;;;;;;;18.07;12.20;;;13.10;99.90;;;;;;5070098;28;20830;-73
2023/05/10 04:03:48;;;;;;;18.45;12.05;;;13.10;99.90;;;;;;5053118;28;20437;-73
2023/05/10 04:06:13;;;;;;;17.30;11.83;;;13.10;99.90;;;;;;5053053;28;20414;-73
2023/05/10 04:08:39;;;;;;;17.88;12.48;;;13.10;99.90;;;;;;5069947;28;20426;-73
2023/05/10 04:11:09;;;;;;;19.33;12.53;;;13.10;99.90;;;;;;5069496;28;20932;-73
2023/05/10 04:13:35;;;;;;;18.35;12.07;;;13.10;99.90;;;;;;5087533;28;20409;-73
2023/05/10 04:16:01;;;;;;;20.70;13.20;;;13.10;99.90;;;;;;5069318;28;20405;-73
2023/05/10 04:18:27;;;;;;;20.67;12.70;;;13.00;99.90;;;;;;5052889;28;20445;-73
2023/05/10 04:20:52;;;;;;;20.92;13.27;;;13.10;99.90;;;;;;5085984;28;20986;-73
2023/05/10 04:23:18;;;;;;;21.43;13.33;;;13.10;99.90;;;;;;5052254;28;21171;-73
2023/05/10 04:25:44;;;;;;;19.92;12.52;;;13.00;99.90;;;;;;5068363;28;20776;-73
2023/05/10 04:28:09;;;;;;;19.83;12.93;;;13.00;99.90;;;;;;5070423;28;20414;-73
2023/05/10 04:30:35;;;;;;;21.38;12.90;;;13.00;99.90;;;;;;5088074;28;20402;-74
2023/05/10 04:33:04;;;;;;;20.33;13.03;;;13.00;99.90;;;;;;5069833;28;20437;-74
2023/05/10 04:35:30;;;;;;;21.05;12.20;;;12.90;99.90;;;;;;5063386;28;20442;-73
2023/05/10 04:37:55;;;;;;;20.40;12.25;;;12.90;99.90;;;;;;5064177;28;20833;-73
2023/05/10 04:40:21;;;;;;;21.37;13.80;;;12.90;99.90;;;;;;5088223;28;20907;-74
2023/05/10 04:42:46;;;;;;;19.08;12.75;;;12.90;99.90;;;;;;5053116;28;20484;-74
2023/05/10 04:45:14;;;;;;;21.70;12.60;;;12.90;99.90;;;;;;5069176;28;20451;-74
2023/05/10 04:47:40;;;;;;;23.45;14.02;;;12.90;99.90;;;;;;5103701;28;20556;-74
2023/05/10 04:50:06;;;;;;;21.57;12.63;;;12.90;99.90;;;;;;5070034;28;20509;-74
2023/05/10 04:52:31;;;;;;;21.85;13.63;;;12.90;99.90;;;;;;5070350;28;20461;-74
2023/05/10 04:54:57;;;;;;;22.63;13.70;;;12.90;99.90;;;;;;5087970;28;20899;-74
2023/05/10 04:57:23;;;;;;;22.57;13.67;;;12.90;99.90;;;;;;5069476;28;20394;-74
2023/05/10 04:59:48;;;;;;;21.92;13.73;;;12.90;99.90;;;;;;5069760;28;20760;-74
2023/05/10 05:02:14;;;;;;;21.87;13.40;;;12.90;99.90;;;;;;5087824;28;20394;-74
2023/05/10 05:04:40;;;;;;;23.20;13.53;;;12.90;99.90;;;;;;5087163;28;20514;-74
2023/05/10 05:07:05;;;;;;;25.50;13.48;;;12.90;99.90;;;;;;5069708;28;20574;-74
2023/05/10 05:09:31;;;;;;;21.20;13.20;;;12.90;99.90;;;;;;5067765;28;20406;-74
2023/05/10 05:11:58;;;;;;;21.95;12.70;;;12.90;99.90;;;;;;5087524;28;20891;-74
2023/05/10 05:14:25;;;;;;;20.30;11.95;;;12.90;99.90;;;;;;5087849;28;20409;-74
2023/05/10 05:16:51;;;;;;;22.30;12.45;;;12.90;99.90;;;;;;5052483;28;20409;-74
2023/05/10 05:19:17;;;;;;;21.25;12.15;;;12.90;99.90;;;;;;5087122;28;20412;-70
2023/05/10 05:21:43;;;;;;;20.43;12.10;;;12.90;99.90;;;;;;5087440;28;20401;-70
2023/05/10 05:24:09;;;;;;;18.73;11.32;;;12.90;99.90;;;;;;5068186;28;20892;-71
2023/05/10 05:26:36;;;;;;;17.53;11.07;;;12.90;99.90;;;;;;5068318;28;20432;-75
2023/05/10 05:29:02;;;;;;;16.58;10.90;;;12.90;99.90;;;;;;5068905;28;20943;-72
2023/05/10 05:31:28;;;;;;;14.55;10.25;;;12.90;99.90;;;;;;5068733;28;20414;-72
2023/05/10 05:33:54;;;;;;;14.68;10.65;;;12.90;99.90;;;;;;5102925;28;20406;-72
2023/05/10 05:36:19;;;;;;;15.07;10.67;;;12.90;99.90;;;;;;5069008;28;20408;-72
2023/05/10 05:38:45;;;;;;;13.18;10.13;;;12.90;99.90;;;;;;5087527;28;20398;-72
2023/05/10 05:41:11;;;;;;;13.47;9.93;;;12.90;99.90;;;;;;5086967;28;20441;-72
2023/05/10 05:43:36;;;;;;;14.07;9.38;;;12.90;99.90;;;;;;5087046;28;20910;-72
2023/05/10 05:46:02;;;;;;;14.37;9.93;;;12.90;99.90;;;;;;5069521;28;20408;-73
2023/05/10 05:48:30;;;;;;;15.45;9.73;;;12.90;99.90;;;;;;5087033;28;20953;-72
2023/05/10 05:50:56;;;;;;;15.40;9.55;;;12.90;99.90;;;;;;5052501;28;20414;-73
2023/05/10 05:53:22;;;;;;;14.10;9.45;;;12.90;99.90;;;;;;5069667;28;20410;-74
2023/05/10 05:55:58;;;;;;;13.05;9.15;;;13.00;99.90;;;;;;5086816;28;20424;-73
2023/05/10 05:58:25;;;;;;;13.10;8.35;;;13.00;99.90;;;;;;5102902;28;20414;-73
2023/05/10 06:00:51;;;;;;;11.15;7.95;;;12.90;99.90;;;;;;5068248;28;20938;-73
2023/05/10 06:03:18;;;;;;;9.40;7.10;;;12.90;99.90;;;;;;5086547;28;20473;-73
2023/05/10 06:05:43;;;;;;;10.55;7.63;;;12.90;99.90;;;;;;5086972;28;20496;-74
2023/05/10 06:08:09;;;;;;;9.70;7.50;;;12.90;99.90;;;;;;5069285;28;20477;-74
2023/05/10 06:10:35;;;;;;;10.25;7.20;;;12.90;99.90;;;;;;5086558;28;20421;-74
2023/05/10 06:13:01;;;;;;;10.40;7.23;;;12.90;99.90;;;;;;5056253;28;20763;-74
2023/05/10 06:15:27;;;;;;;9.07;6.53;;;12.90;99.90;;;;;;5090407;28;20414;-74
2023/05/10 06:17:52;;;;;;;9.57;6.70;;;12.90;99.90;;;;;;5072856;28;20444;-74
2023/05/10 06:20:18;;;;;;;8.77;6.90;;;12.90;99.90;;;;;;5072075;28;20398;-74
2023/05/10 06:22:44;;;;;;;10.65;6.97;;;13.00;99.90;;;;;;5055657;28;20410;-74
2023/05/10 06:25:10;;;;;;;8.00;5.80;;;13.00;99.90;;;;;;5072087;28;20402;-74
2023/05/10 06:27:35;;;;;;;7.20;4.72;;;13.00;99.90;;;;;;5090149;28;20510;-74
2023/05/10 06:30:02;;;;;;;8.43;5.55;;;13.00;99.90;;;;;;5090336;28;20402;-74
2023/05/10 06:32:28;;;;;;;5.90;4.70;;;13.10;99.90;;;;;;5090754;28;20394;-74
2023/05/10 06:34:54;;;;;;;6.38;4.65;;;13.10;99.90;;;;;;5072049;28;20892;-74
2023/05/10 06:37:20;;;;;;;4.90;3.65;;;13.10;99.90;;;;;;5090431;28;20990;-74
2023/05/10 06:39:45;;;;;;;4.18;2.85;;;13.10;99.90;;;;;;5090228;28;20818;-74
2023/05/10 06:42:11;;;;;;;3.57;2.57;;;13.10;99.90;;;;;;5072083;28;20399;-74
2023/05/10 06:44:36;;;;;;;3.70;2.30;;;13.10;99.90;;;;;;5090439;28;20426;-74
2023/05/10 06:47:02;;;;;;;1.83;1.20;;;13.10;99.90;;;;;;5071795;28;20938;-74
2023/05/10 06:49:28;;;;;;;1.00;0.60;;;13.10;99.90;;;;;;5090396;28;20402;-73
2023/05/10 06:51:55;;;;;;;0.90;0.30;;;13.10;99.90;;;;;;5055119;28;20752;-73
2023/05/10 06:54:20;;;;;;;0.35;0.20;;;13.10;99.90;;;;;;5071797;28;20410;-73
2023/05/10 06:56:46;;;;;;;0.80;0.30;;;13.10;99.90;;;;;;5072079;28;20410;-73
2023/05/10 06:59:13;;;;;;;0.40;0.30;;;13.10;99.90;;;;;;5090295;28;20410;-73
2023/05/10 07:01:39;;;;;;;1.25;0.30;;;13.10;99.90;;;;;;5090660;28;20497;-73
2023/05/10 07:04:04;;;;;;;1.23;0.40;;;13.10;99.90;;;;;;5071349;28;20609;-73
2023/05/10 07:06:30;;;;;;;1.10;0.70;;;13.10;99.90;;;;;;5083430;28;20415;-73
2023/05/10 07:08:56;;;;;;;1.67;0.90;;;13.10;99.90;;;;;;5086271;28;20787;-73
2023/05/10 07:11:21;;;;;;;2.00;1.00;;;13.10;99.90;;;;;;5055217;28;20410;-73
2023/05/10 07:13:47;;;;;;;3.30;1.20;;;13.10;99.90;;;;;;5061256;28;20443;-73
2023/05/10 07:16:12;;;;;;;3.83;1.60;;;13.10;99.90;;;;;;5054928;28;20408;-73
2023/05/10 07:18:38;;;;;;;5.75;2.28;;;13.10;99.90;;;;;;5089722;28;20785;-73
2023/05/10 07:21:04;;;;;;;4.93;2.30;;;13.10;99.90;;;;;;5054619;28;20409;-73
2023/05/10 07:23:29;;;;;;;6.45;2.53;;;13.00;99.90;;;;;;5071749;28;20487;-73
2023/05/10 07:25:57;;;;;;;6.80;2.37;;;13.10;99.90;;;;;;5089076;28;20448;-73
2023/05/10 07:28:23;;;;;;;7.55;2.90;;;13.10;99.90;;;;;;5071508;28;21935;-73
2023/05/10 07:30:49;;;;;;;6.30;3.00;;;13.00;99.90;;;;;;5089353;28;20433;-73
2023/05/10 07:33:15;;;;;;;7.07;3.70;;;13.00;99.90;;;;;;5088930;28;20434;-73
2023/05/10 07:35:41;;;;;;;7.55;4.22;;;13.00;99.90;;;;;;5071510;28;20424;-73
2023/05/10 07:38:07;;;;;;;6.93;4.78;;;12.90;99.90;;;;;;5089105;28;21021;-73
2023/05/10 07:40:33;;;;;;;9.73;5.50;;;12.90;99.90;;;;;;5071409;28;20418;-73
2023/05/10 07:42:59;;;;;;;6.72;5.10;;;12.80;99.90;;;;;;5088406;28;21256;-73
2023/05/10 07:45:25;;;;;;;7.33;5.13;;;12.80;99.90;;;;;;5089762;28;21614;-73
2023/05/10 07:47:51;;;;;;;7.38;5.40;;;12.80;99.90;;;;;;5088832;28;20466;-73
2023/05/10 07:50:16;;;;;;;6.70;5.20;;;12.80;99.90;;;;;;5071196;28;20436;-73
2023/05/10 07:52:42;;;;;;;8.23;6.00;;;12.80;99.90;;;;;;5088968;28;20430;-73
2023/05/10 07:55:08;;;;;;;8.73;6.60;;;12.70;99.90;;;;;;5071214;28;20414;-73
2023/05/10 07:57:34;;;;;;;10.27;7.63;;;12.80;99.90;;;;;;5088730;28;20430;-73
2023/05/10 08:00:00;;;;;;;11.40;8.75;;;12.80;99.90;;;;;;5070829;28;20409;-73
2023/05/10 08:02:26;;;;;;;14.77;11.23;;;12.80;99.90;;;;;;5070761;28;20437;-73
2023/05/10 08:04:51;;;;;;;15.73;12.68;;;12.80;99.90;;;;;;5088455;28;20904;-73
2023/05/10 08:07:17;;;;;;;18.20;14.13;;;12.80;99.90;;;;;;5053444;28;20409;-73
2023/05/10 08:09:43;;;;;;;18.63;14.50;;;12.80;99.90;;;;;;5054369;28;20485;-73
2023/05/10 08:12:08;;;;;;;21.33;16.52;;;12.80;99.90;;;;;;5070238;28;20398;-73
2023/05/10 08:14:36;;;;;;;20.80;15.87;;;12.90;99.90;;;;;;5089101;28;20410;-73
2023/05/10 08:17:02;;;;;;;22.33;16.40;;;12.90;99.90;;;;;;5088139;28;20417;-73
2023/05/10 08:19:28;;;;;;;22.67;17.58;;;12.80;99.90;;;;;;5088725;28;20428;-73
2023/05/10 08:21:55;;;;;;;20.25;16.48;;;12.80;99.90;;;;;;5088622;28;20407;-73
2023/05/10 08:24:21;;;;;;;18.95;15.38;;;12.80;99.90;;;;;;5088268;28;20491;-73
2023/05/10 08:26:47;;;;;;;21.02;15.68;;;12.80;99.90;;;;;;5103630;28;20414;-73
2023/05/10 08:29:13;;;;;;;18.38;14.27;;;12.90;99.90;;;;;;5088035;28;20412;-73
2023/05/10 08:31:39;;;;;;;15.90;11.90;;;12.90;99.90;;;;;;5087966;28;20398;-73
2023/05/10 08:34:05;;;;;;;14.90;12.00;;;12.90;99.90;;;;;;5087799;28;20522;-74
2023/05/10 08:36:31;;;;;;;16.23;12.65;;;13.00;99.90;;;;;;5087924;28;20425;-73
2023/05/10 08:38:57;;;;;;;14.60;12.00;;;13.00;99.90;;;;;;5088452;28;20416;-74
2023/05/10 08:41:25;;;;;;;15.20;11.88;;;13.00;99.90;;;;;;5088315;28;20447;-74
2023/05/10 08:43:52;;;;;;;13.60;10.68;;;13.00;99.90;;;;;;5088074;28;20444;-74
2023/05/10 08:46:20;;;;;;;12.23;9.80;;;13.00;99.90;;;;;;5070411;28;20409;-73
2023/05/10 08:48:47;;;;;;;11.80;9.70;;;13.00;99.90;;;;;;5088171;28;20763;-74
2023/05/10 08:51:15;;;;;;;10.97;9.17;;;13.00;99.90;;;;;;5069901;28;20418;-74
2023/05/10 08:53:41;;;;;;;9.98;8.48;;;13.00;99.90;;;;;;5070024;28;21113;-74
2023/05/10 08:56:07;;;;;;;8.38;6.55;;;13.00;99.90;;;;;;5069404;28;20464;-74
2023/05/10 08:58:32;;;;;;;8.13;6.63;;;13.10;99.90;;;;;;5070250;28;20410;-74
2023/05/10 09:01:00;;;;;;;7.55;6.63;;;13.10;99.90;;;;;;5069243;28;20756;-74
2023/05/10 09:03:26;;;;;;;9.55;8.07;;;13.10;99.90;;;;;;5069904;28;20838;-74
2023/05/10 09:05:52;;;;;;;12.73;8.87;;;13.10;99.90;;;;;;5069684;28;20414;-74
2023/05/10 09:08:18;;;;;;;10.95;8.50;;;13.00;99.90;;;;;;5061581;28;20437;-74
2023/05/10 09:10:44;;;;;;;11.50;8.38;;;13.10;99.90;;;;;;5074828;28;20452;-74
2023/05/10 09:13:11;;;;;;;11.52;8.15;;;13.10;99.90;;;;;;5087644;28;20398;-74
2023/05/10 09:15:37;;;;;;;7.93;7.10;;;13.10;99.90;;;;;;5069956;28;20432;-74
2023/05/10 09:18:03;;;;;;;8.27;7.03;;;13.20;99.90;;;;;;5087921;28;20409;-74
2023/05/10 09:20:29;;;;;;;6.28;5.47;;;13.20;99.90;;;;;;5087498;28;20457;-74
2023/05/10 09:22:55;;;;;;;6.05;5.10;;;13.30;99.90;;;;;;5087783;28;20468;-74
2023/05/10 09:25:22;;;;;;;5.37;4.53;;;13.30;99.90;;;;;;5069311;28;20402;-74
2023/05/10 09:27:48;;;;;;;4.70;4.22;;;13.40;99.90;;;;;;5087926;28;20405;-74
2023/05/10 09:30:25;;;;;;;4.88;4.05;;;13.40;99.90;;;;;;5087404;28;21137;-74
2023/05/10 09:32:52;;;;;;;4.22;3.30;;;13.40;99.90;;;;;;5087678;28;20410;-74
2023/05/10 09:35:20;;;;;;;4.10;3.50;;;13.40;99.90;;;;;;5087338;28;20406;-74
2023/05/10 09:37:50;;;;;;;4.93;3.47;;;13.30;99.90;;;;;;5088017;28;20737;-74
2023/05/10 09:40:17;;;;;;;4.57;3.42;;;13.30;99.90;;;;;;5068935;28;20398;-74
2023/05/10 09:42:51;;;;;;;4.18;3.47;;;13.30;99.90;;;;;;5087858;28;20413;-75
2023/05/10 09:45:16;;;;;;;4.57;3.60;;;13.40;99.90;;;;;;5052141;28;20471;-74
2023/05/10 09:47:42;;;;;;;4.60;3.30;;;13.40;99.90;;;;;;5073415;28;20409;-74
2023/05/10 09:50:08;;;;;;;4.00;3.45;;;13.50;99.90;;;;;;5073027;28;20919;-74
2023/05/10 09:52:54;;;;;;;4.60;3.10;;;13.50;99.90;;;;;;5091295;28;20809;-74
2023/05/10 09:55:45;;;;;;;4.18;3.30;;;13.60;99.90;;;;;;5090857;28;20464;-74
2023/05/10 09:58:14;;;;;;;3.80;2.95;;;13.70;99.90;;;;;;5104705;28;20421;-75
2023/05/10 10:00:42;;;;;;;4.75;3.50;;;13.70;99.90;;;;;;5091399;28;20451;-74
2023/05/10 10:03:16;;;;;;;5.00;3.97;;;13.70;99.90;;;;;;5090467;28;20987;-74
2023/05/10 10:05:43;;;;;;;6.25;4.82;;;13.70;99.90;;;;;;5090872;28;20408;-74
2023/05/10 10:08:09;;;;;;;6.32;4.70;;;13.70;99.90;;;;;;5091322;28;21037;-74
2023/05/10 10:10:35;;;;;;;5.97;4.10;;;13.70;99.90;;;;;;5079320;28;21065;-74
2023/05/10 10:13:01;;;;;;;5.07;3.88;;;13.70;99.90;;;;;;5072553;28;20410;-74
2023/05/10 10:15:27;;;;;;;3.83;3.08;;;13.70;99.90;;;;;;5090686;28;20752;-74
2023/05/10 10:17:54;;;;;;;4.13;3.13;;;13.70;99.90;;;;;;5090424;28;20485;-75
2023/05/10 10:20:22;;;;;;;4.43;3.20;;;13.70;99.90;;;;;;5072819;28;20500;-74
2023/05/10 10:22:48;;;;;;;5.45;3.50;;;13.70;99.90;;;;;;5056569;28;20449;-74
2023/05/10 10:25:15;;;;;;;4.82;3.30;;;13.70;99.90;;;;;;5072062;28;20909;-74
2023/05/10 10:27:52;;;;;;;5.40;3.30;;;13.70;99.90;;;;;;5090741;28;20406;-74
2023/05/10 10:30:30;;;;;;;3.75;2.78;;;13.80;99.90;;;;;;5063380;28;20528;-74
2023/05/10 10:33:20;;;;;;;4.60;3.10;;;13.80;99.90;;;;;;5072733;28;20536;-74
2023/05/10 10:35:46;;;;;;;4.73;3.10;;;13.80;99.90;;;;;;5061595;28;20528;-74
2023/05/10 10:38:12;;;;;;;5.03;3.70;;;13.80;99.90;;;;;;5090581;28;20414;-74
2023/05/10 10:40:38;;;;;;;6.05;4.00;;;13.70;99.90;;;;;;5072510;28;20408;-74
2023/05/10 10:43:25;;;;;;;5.77;4.17;;;13.70;99.90;;;;;;5069852;28;20806;-74
2023/05/10 10:46:13;;;;;;;5.68;4.25;;;13.80;99.90;;;;;;5064283;28;20398;-74
2023/05/10 10:48:40;;;;;;;5.43;3.93;;;13.90;99.90;;;;;;5078788;28;20486;-74
2023/05/10 10:51:06;;;;;;;6.15;3.70;;;14.00;99.90;;;;;;5055312;28;20414;-74
2023/05/10 10:53:32;;;;;;;5.00;3.22;;;14.00;99.90;;;;;;5089411;28;20923;-75
2023/05/10 10:56:14;;;;;;;4.60;3.35;;;14.00;99.90;;;;;;5071131;28;20406;-74
2023/05/10 10:58:41;;;;;;;4.25;2.10;;;14.10;99.90;;;;;;5090024;28;20741;-74
2023/05/10 11:01:15;;;;;;;3.70;2.30;;;14.10;99.90;;;;;;5089639;28;20889;-74
2023/05/10 11:04:01;;;;;;;3.88;2.40;;;14.10;99.90;;;;;;5071193;28;20430;-74
2023/05/10 11:06:34;;;;;;;4.15;3.00;;;14.20;99.90;;;;;;5060372;28;20863;-75
2023/05/10 11:09:11;;;;;;;4.07;2.85;;;14.20;99.90;;;;;;5072073;28;20794;-74
2023/05/10 11:11:50;;;;;;;3.45;2.80;;;14.30;99.90;;;;;;5071693;28;20401;-74
2023/05/10 11:14:21;;;;;;;3.80;2.90;;;14.30;99.90;;;;;;5088938;28;20489;-74
2023/05/10 11:16:47;;;;;;;3.25;2.30;;;14.40;99.90;;;;;;5071560;28;20414;-74
2023/05/10 11:19:15;;;;;;;3.58;2.50;;;14.50;99.90;;;;;;5089371;28;20455;-74
2023/05/10 11:21:48;;;;;;;2.83;1.90;;;14.60;99.90;;;;;;5071646;28;20445;-74
2023/05/10 11:24:21;;;;;;;3.00;1.60;;;14.70;99.90;;;;;;5089391;28;20436;-74
2023/05/10 11:26:51;;;;;;;2.55;1.60;;;14.80;99.90;;;;;;5089141;28;20406;-74
2023/05/10 11:29:16;;;;;;;2.75;1.60;;;14.90;99.90;;;;;;5054659;28;20421;-74
2023/05/10 11:31:44;;;;;;;2.88;1.50;;;15.00;99.90;;;;;;5089078;28;20398;-74
2023/05/10 11:34:10;;;;;;;2.63;1.23;;;15.10;99.90;;;;;;5071421;28;20412;-74
2023/05/10 11:36:36;;;;;;;1.95;1.25;;;15.10;99.90;;;;;;5088765;28;20405;-74
2023/05/10 11:39:03;;;;;;;1.70;1.10;;;15.20;99.90;;;;;;5070775;28;20489;-74
2023/05/10 11:41:30;;;;;;;3.63;1.20;;;15.20;99.90;;;;;;5089074;28;20450;-74
2023/05/10 11:43:57;;;;;;;3.38;1.45;;;15.30;99.90;;;;;;5070500;28;20434;-74
2023/05/10 11:46:27;;;;;;;2.55;1.60;;;15.20;99.90;;;;;;5070792;28;20485;-74
2023/05/10 11:48:58;;;;;;;2.60;1.58;;;15.30;99.90;;;;;;5089085;28;20443;-74
2023/05/10 11:51:25;;;;;;;3.38;2.88;;;15.30;99.90;;;;;;5069834;28;20463;-74
2023/05/10 11:53:53;;;;;;;4.47;3.38;;;15.40;99.90;;;;;;5070863;28;20428;-74
2023/05/10 11:56:21;;;;;;;5.43;4.07;;;15.40;99.90;;;;;;5069529;28;20411;-74
2023/05/10 11:58:55;;;;;;;4.95;4.05;;;15.40;99.90;;;;;;5070466;28;21143;-74
2023/05/10 12:01:21;;;;;;;5.43;3.60;;;15.50;99.90;;;;;;5087401;28;20401;-74
2023/05/10 12:03:47;;;;;;;4.85;3.55;;;15.50;99.90;;;;;;5061668;28;20519;-74
2023/05/10 12:06:13;;;;;;;3.92;2.45;;;15.50;99.90;;;;;;5049193;28;20994;-74
2023/05/10 12:08:46;;;;;;;3.77;2.77;;;15.60;99.90;;;;;;5061705;28;20449;-74
2023/05/10 12:11:15;;;;;;;4.22;2.85;;;15.60;99.90;;;;;;5084013;28;20465;-74
2023/05/10 12:13:46;;;;;;;6.75;3.50;;;15.70;99.90;;;;;;5053632;28;20840;-74
2023/05/10 12:16:17;;;;;;;4.93;3.88;;;15.70;99.90;;;;;;5088509;28;20421;-74
2023/05/10 12:18:43;;;;;;;6.60;4.10;;;15.70;99.90;;;;;;5070113;28;20481;-74
2023/05/10 12:21:12;;;;;;;6.22;4.35;;;15.60;99.90;;;;;;5087743;28;20431;-73
2023/05/10 12:23:39;;;;;;;6.53;4.50;;;15.60;99.90;;;;;;5070238;28;20423;-73
2023/05/10 12:26:05;;;;;;;6.97;4.80;;;15.60;99.90;;;;;;5088234;28;20406;-73
2023/05/10 12:28:32;;;;;;;6.78;4.50;;;15.70;99.90;;;;;;5088254;28;20813;-73
2023/05/10 12:30:59;;;;;;;6.47;4.30;;;15.80;99.90;;;;;;5068645;28;20471;-73
2023/05/10 12:33:25;;;;;;;8.30;5.43;;;15.90;99.90;;;;;;5070141;28;20410;-73
2023/05/10 12:35:54;;;;;;;8.73;5.87;;;15.90;99.90;;;;;;5070571;28;20412;-73
2023/05/10 12:38:42;;;;;;;9.05;5.88;;;16.00;99.90;;;;;;5087602;28;20780;-73
2023/05/10 12:41:13;;;;;;;7.68;6.10;;;16.00;99.90;;;;;;5087922;28;20414;-73